Nash, Texas
Current Conditions -  °F | °C
As of 3:53 PM on Sunday 25 Jan 2015 (Local Time) from KTXK Reporting Station
Scattered Clouds Scattered Clouds  
Wind Chill: 60°   Ceiling: Unl
Heat Index: 60°   Visibility: 10mi
Dew Point: 32°   Wind: 21mph
Humidity: 35%   Direction: 290°WNW
Pressure: 29.91"   Gusts: 32mph
Location:  33.44°N, 94.13°W
Report Text: KTXK 252153Z 29018G28KT 10SM SCT070 16/00 A2991 RMK AO2 PK WND 31033/2105 RAB2055E16 SLP129 P0000 T01560000
Loading
Personal Weather Stations






























Interactive Weather Map New forecast layout! Learn more

10-Day Weather Forecast

Advertisements
Track Severe Weather on mobile